sensor_id;sensor_type;location;lat;lon;timestamp;temperature;humidity
46676;DHT22;32412;51.478;5.694;2023-03-12T14:44:27;12.60;99.90
46676;DHT22;32412;51.478;5.694;2023-03-12T14:47:06;12.40;99.90
46676;DHT22;32412;51.478;5.694;2023-03-12T14:49:40;12.30;99.90
46676;DHT22;32412;51.478;5.694;2023-03-12T14:52:06;12.20;99.90
46676;DHT22;32412;51.478;5.694;2023-03-12T14:54:32;12.10;99.90
46676;DHT22;32412;51.478;5.694;2023-03-12T14:56:58;12.10;99.90
46676;DHT22;32412;51.478;5.694;2023-03-12T14:59:29;12.10;99.90
46676;DHT22;32412;51.478;5.694;2023-03-12T15:02:17;12.00;99.90
46676;DHT22;32412;51.478;5.694;2023-03-12T15:04:43;12.10;99.90
46676;DHT22;32412;51.478;5.694;2023-03-12T15:07:12;12.10;99.90
46676;DHT22;32412;51.478;5.694;2023-03-12T15:09:42;12.10;99.90
46676;DHT22;32412;51.478;5.694;2023-03-12T15:12:37;12.10;99.90
46676;DHT22;32412;51.478;5.694;2023-03-12T15:15:09;12.10;99.90
46676;DHT22;32412;51.478;5.694;2023-03-12T15:17:36;12.10;99.90
46676;DHT22;32412;51.478;5.694;2023-03-12T15:20:06;12.20;99.90
46676;DHT22;32412;51.478;5.694;2023-03-12T15:22:35;12.20;99.90
46676;DHT22;32412;51.478;5.694;2023-03-12T15:25:24;12.10;99.90
46676;DHT22;32412;51.478;5.694;2023-03-12T15:30:34;12.30;99.90
46676;DHT22;32412;51.478;5.694;2023-03-12T15:33:22;12.30;99.90
46676;DHT22;32412;51.478;5.694;2023-03-12T15:38:33;12.50;99.90
46676;DHT22;32412;51.478;5.694;2023-03-12T15:41:07;12.50;99.90
46676;DHT22;32412;51.478;5.694;2023-03-12T15:43:34;12.40;99.90
46676;DHT22;32412;51.478;5.694;2023-03-12T15:46:12;12.40;99.90
46676;DHT22;32412;51.478;5.694;2023-03-12T15:48:44;12.30;99.90
46676;DHT22;32412;51.478;5.694;2023-03-12T15:51:31;12.30;99.90
46676;DHT22;32412;51.478;5.694;2023-03-12T15:54:03;12.30;99.90
46676;DHT22;32412;51.478;5.694;2023-03-12T15:56:31;12.30;99.90
46676;DHT22;32412;51.478;5.694;2023-03-12T15:59:22;12.30;99.90
46676;DHT22;32412;51.478;5.694;2023-03-12T16:01:54;12.30;99.90
46676;DHT22;32412;51.478;5.694;2023-03-12T16:04:21;12.40;99.90
46676;DHT22;32412;51.478;5.694;2023-03-12T16:06:50;12.40;99.90
46676;DHT22;32412;51.478;5.694;2023-03-12T16:09:24;12.30;99.90
46676;DHT22;32412;51.478;5.694;2023-03-12T16:11:51;12.30;99.90
46676;DHT22;32412;51.478;5.694;2023-03-12T16:14:32;12.20;99.90
46676;DHT22;32412;51.478;5.694;2023-03-12T16:16:59;12.20;99.90
46676;DHT22;32412;51.478;5.694;2023-03-12T16:19:28;12.20;99.90
46676;DHT22;32412;51.478;5.694;2023-03-12T16:21:54;12.20;99.90
46676;DHT22;32412;51.478;5.694;2023-03-12T16:24:19;12.10;99.90
46676;DHT22;32412;51.478;5.694;2023-03-12T16:26:51;12.10;99.90
46676;DHT22;32412;51.478;5.694;2023-03-12T16:29:18;12.00;99.90
46676;DHT22;32412;51.478;5.694;2023-03-12T16:31:53;12.10;99.90
46676;DHT22;32412;51.478;5.694;2023-03-12T16:34:19;12.00;99.90
46676;DHT22;32412;51.478;5.694;2023-03-12T16:36:45;12.00;99.90
46676;DHT22;32412;51.478;5.694;2023-03-12T16:39:11;12.00;99.90
46676;DHT22;32412;51.478;5.694;2023-03-12T16:41:37;11.90;99.90
46676;DHT22;32412;51.478;5.694;2023-03-12T16:44:05;11.90;99.90
46676;DHT22;32412;51.478;5.694;2023-03-12T16:46:31;11.90;99.90
46676;DHT22;32412;51.478;5.694;2023-03-12T16:48:57;11.90;99.90
46676;DHT22;32412;51.478;5.694;2023-03-12T16:51:24;11.90;99.90
46676;DHT22;32412;51.478;5.694;2023-03-12T16:53:53;11.80;99.90
46676;DHT22;32412;51.478;5.694;2023-03-12T16:56:24;11.80;99.90
46676;DHT22;32412;51.478;5.694;2023-03-12T16:58:51;11.80;99.90
46676;DHT22;32412;51.478;5.694;2023-03-12T17:01:23;11.80;99.90
46676;DHT22;32412;51.478;5.694;2023-03-12T17:03:51;11.70;99.90
46676;DHT22;32412;51.478;5.694;2023-03-12T17:06:20;11.70;99.90
46676;DHT22;32412;51.478;5.694;2023-03-12T17:08:50;11.60;99.90
46676;DHT22;32412;51.478;5.694;2023-03-12T17:11:20;11.60;99.90
46676;DHT22;32412;51.478;5.694;2023-03-12T17:13:56;11.60;99.90
46676;DHT22;32412;51.478;5.694;2023-03-12T17:16:22;11.50;99.90
46676;DHT22;32412;51.478;5.694;2023-03-12T17:18:57;11.50;99.90
46676;DHT22;32412;51.478;5.694;2023-03-12T17:21:23;11.50;99.90
46676;DHT22;32412;51.478;5.694;2023-03-12T17:23:51;11.50;99.90
46676;DHT22;32412;51.478;5.694;2023-03-12T17:26:20;11.50;99.90
46676;DHT22;32412;51.478;5.694;2023-03-12T17:28:46;11.50;99.90
46676;DHT22;32412;51.478;5.694;2023-03-12T17:31:12;11.50;99.90
46676;DHT22;32412;51.478;5.694;2023-03-12T17:33:37;11.50;99.90
46676;DHT22;32412;51.478;5.694;2023-03-12T17:36:05;11.50;99.90
46676;DHT22;32412;51.478;5.694;2023-03-12T17:38:35;11.40;99.90
46676;DHT22;32412;51.478;5.694;2023-03-12T17:41:01;11.40;99.90
46676;DHT22;32412;51.478;5.694;2023-03-12T17:43:27;11.50;99.90
46676;DHT22;32412;51.478;5.694;2023-03-12T17:45:55;11.40;99.90
46676;DHT22;32412;51.478;5.694;2023-03-12T17:48:24;11.50;99.90
46676;DHT22;32412;51.478;5.694;2023-03-12T17:50:50;11.50;99.90
46676;DHT22;32412;51.478;5.694;2023-03-12T17:53:16;11.50;99.90
46676;DHT22;32412;51.478;5.694;2023-03-12T17:55:44;11.50;99.90
46676;DHT22;32412;51.478;5.694;2023-03-12T17:58:14;11.40;99.90
46676;DHT22;32412;51.478;5.694;2023-03-12T18:00:39;11.30;99.90
46676;DHT22;32412;51.478;5.694;2023-03-12T18:03:08;11.40;99.90
46676;DHT22;32412;51.478;5.694;2023-03-12T18:05:37;11.40;99.90
46676;DHT22;32412;51.478;5.694;2023-03-12T18:08:05;11.40;99.90
46676;DHT22;32412;51.478;5.694;2023-03-12T18:10:31;11.30;99.90
46676;DHT22;32412;51.478;5.694;2023-03-12T18:12:57;11.40;99.90
46676;DHT22;32412;51.478;5.694;2023-03-12T18:15:55;11.30;99.90
46676;DHT22;32412;51.478;5.694;2023-03-12T18:18:48;11.40;99.90
46676;DHT22;32412;51.478;5.694;2023-03-12T18:21:13;11.30;99.90
46676;DHT22;32412;51.478;5.694;2023-03-12T18:23:39;11.30;99.90
46676;DHT22;32412;51.478;5.694;2023-03-12T18:26:06;11.30;99.90
46676;DHT22;32412;51.478;5.694;2023-03-12T18:28:32;11.30;99.90
46676;DHT22;32412;51.478;5.694;2023-03-12T18:30:58;11.30;99.90
46676;DHT22;32412;51.478;5.694;2023-03-12T18:33:23;11.30;99.90
46676;DHT22;32412;51.478;5.694;2023-03-12T18:35:49;11.20;99.90
46676;DHT22;32412;51.478;5.694;2023-03-12T18:38:17;11.20;99.90
46676;DHT22;32412;51.478;5.694;2023-03-12T18:40:43;11.30;99.90
46676;DHT22;32412;51.478;5.694;2023-03-12T18:43:09;11.30;99.90
46676;DHT22;32412;51.478;5.694;2023-03-12T18:45:34;11.30;99.90
46676;DHT22;32412;51.478;5.694;2023-03-12T18:48:04;11.30;99.90
46676;DHT22;32412;51.478;5.694;2023-03-12T18:50:30;11.20;99.90
46676;DHT22;32412;51.478;5.694;2023-03-12T18:52:56;11.20;99.90
46676;DHT22;32412;51.478;5.694;2023-03-12T18:55:21;11.20;99.90
46676;DHT22;32412;51.478;5.694;2023-03-12T18:57:47;11.20;99.90
46676;DHT22;32412;51.478;5.694;2023-03-12T19:00:14;11.10;99.90
46676;DHT22;32412;51.478;5.694;2023-03-12T19:02:42;11.10;99.90
46676;DHT22;32412;51.478;5.694;2023-03-12T19:05:10;11.10;99.90
46676;DHT22;32412;51.478;5.694;2023-03-12T19:07:37;11.10;99.90
46676;DHT22;32412;51.478;5.694;2023-03-12T19:10:04;11.10;99.90
46676;DHT22;32412;51.478;5.694;2023-03-12T19:12:30;11.00;99.90
46676;DHT22;32412;51.478;5.694;2023-03-12T19:14:56;11.00;99.90
46676;DHT22;32412;51.478;5.694;2023-03-12T19:17:21;10.90;99.90
46676;DHT22;32412;51.478;5.694;2023-03-12T19:19:48;10.80;99.90
46676;DHT22;32412;51.478;5.694;2023-03-12T19:22:15;10.80;99.90
46676;DHT22;32412;51.478;5.694;2023-03-12T19:24:41;10.80;99.90
46676;DHT22;32412;51.478;5.694;2023-03-12T19:27:07;10.80;99.90
46676;DHT22;32412;51.478;5.694;2023-03-12T19:29:33;10.80;99.90
46676;DHT22;32412;51.478;5.694;2023-03-12T19:31:59;10.70;99.90
46676;DHT22;32412;51.478;5.694;2023-03-12T19:34:26;10.70;99.90
46676;DHT22;32412;51.478;5.694;2023-03-12T19:36:52;10.60;99.90
46676;DHT22;32412;51.478;5.694;2023-03-12T19:39:17;10.60;99.90
46676;DHT22;32412;51.478;5.694;2023-03-12T19:41:43;10.50;99.90
46676;DHT22;32412;51.478;5.694;2023-03-12T19:44:09;10.50;99.90
46676;DHT22;32412;51.478;5.694;2023-03-12T19:46:34;10.50;99.90
46676;DHT22;32412;51.478;5.694;2023-03-12T19:49:00;10.50;99.90
46676;DHT22;32412;51.478;5.694;2023-03-12T19:51:26;10.50;99.90
46676;DHT22;32412;51.478;5.694;2023-03-12T19:53:51;10.50;99.90
46676;DHT22;32412;51.478;5.694;2023-03-12T19:56:17;10.40;99.90
46676;DHT22;32412;51.478;5.694;2023-03-12T19:58:44;10.30;99.90
46676;DHT22;32412;51.478;5.694;2023-03-12T20:01:10;10.30;99.90
46676;DHT22;32412;51.478;5.694;2023-03-12T20:03:36;10.20;99.90
46676;DHT22;32412;51.478;5.694;2023-03-12T20:06:09;10.20;99.90
46676;DHT22;32412;51.478;5.694;2023-03-12T20:08:35;10.10;99.90
46676;DHT22;32412;51.478;5.694;2023-03-12T20:11:06;10.10;99.90
46676;DHT22;32412;51.478;5.694;2023-03-12T20:13:34;10.00;99.90
46676;DHT22;32412;51.478;5.694;2023-03-12T20:16:01;9.90;99.90
46676;DHT22;32412;51.478;5.694;2023-03-12T20:18:26;9.90;99.90
46676;DHT22;32412;51.478;5.694;2023-03-12T20:20:52;9.80;99.90
46676;DHT22;32412;51.478;5.694;2023-03-12T20:23:18;9.80;99.90
46676;DHT22;32412;51.478;5.694;2023-03-12T20:25:47;9.80;99.90
46676;DHT22;32412;51.478;5.694;2023-03-12T20:28:14;9.70;99.90
46676;DHT22;32412;51.478;5.694;2023-03-12T20:30:40;9.70;99.90
46676;DHT22;32412;51.478;5.694;2023-03-12T20:33:06;9.70;99.90
46676;DHT22;32412;51.478;5.694;2023-03-12T20:35:33;9.80;99.90
46676;DHT22;32412;51.478;5.694;2023-03-12T20:37:59;9.80;99.90
46676;DHT22;32412;51.478;5.694;2023-03-12T20:40:27;9.80;99.90
46676;DHT22;32412;51.478;5.694;2023-03-12T20:42:56;9.80;99.90
46676;DHT22;32412;51.478;5.694;2023-03-12T20:45:21;9.80;99.90
46676;DHT22;32412;51.478;5.694;2023-03-12T20:47:47;9.70;99.90
46676;DHT22;32412;51.478;5.694;2023-03-12T20:50:13;9.70;99.90
46676;DHT22;32412;51.478;5.694;2023-03-12T20:52:38;9.80;99.90
46676;DHT22;32412;51.478;5.694;2023-03-12T20:55:05;9.80;99.90
46676;DHT22;32412;51.478;5.694;2023-03-12T20:57:34;9.70;99.90
46676;DHT22;32412;51.478;5.694;2023-03-12T21:00:03;9.70;99.90
46676;DHT22;32412;51.478;5.694;2023-03-12T21:02:29;9.70;99.90
46676;DHT22;32412;51.478;5.694;2023-03-12T21:04:55;9.70;99.90
46676;DHT22;32412;51.478;5.694;2023-03-12T21:07:26;9.70;99.90
46676;DHT22;32412;51.478;5.694;2023-03-12T21:09:51;9.70;99.90
46676;DHT22;32412;51.478;5.694;2023-03-12T21:12:17;9.80;99.90
46676;DHT22;32412;51.478;5.694;2023-03-12T21:14:43;9.90;99.90
46676;DHT22;32412;51.478;5.694;2023-03-12T21:17:08;9.90;99.90
46676;DHT22;32412;51.478;5.694;2023-03-12T21:19:41;10.00;99.90
46676;DHT22;32412;51.478;5.694;2023-03-12T21:22:08;10.00;99.90
46676;DHT22;32412;51.478;5.694;2023-03-12T21:24:34;10.00;99.90
46676;DHT22;32412;51.478;5.694;2023-03-12T21:27:00;10.00;99.90
46676;DHT22;32412;51.478;5.694;2023-03-12T21:29:26;10.10;99.90
46676;DHT22;32412;51.478;5.694;2023-03-12T21:31:51;10.10;99.90
46676;DHT22;32412;51.478;5.694;2023-03-12T21:34:21;10.10;99.90
46676;DHT22;32412;51.478;5.694;2023-03-12T21:36:47;10.20;99.90
46676;DHT22;32412;51.478;5.694;2023-03-12T21:39:13;10.20;99.90
46676;DHT22;32412;51.478;5.694;2023-03-12T21:41:39;10.30;99.90
46676;DHT22;32412;51.478;5.694;2023-03-12T21:44:05;10.30;99.90
46676;DHT22;32412;51.478;5.694;2023-03-12T21:46:30;10.30;99.90
46676;DHT22;32412;51.478;5.694;2023-03-12T21:48:56;10.30;99.90
46676;DHT22;32412;51.478;5.694;2023-03-12T21:51:23;10.30;99.90
46676;DHT22;32412;51.478;5.694;2023-03-12T21:53:57;10.30;99.90
46676;DHT22;32412;51.478;5.694;2023-03-12T21:56:23;10.30;99.90
46676;DHT22;32412;51.478;5.694;2023-03-12T21:58:54;10.30;99.90
46676;DHT22;32412;51.478;5.694;2023-03-12T22:01:20;10.30;99.90
46676;DHT22;32412;51.478;5.694;2023-03-12T22:03:46;10.30;99.90
46676;DHT22;32412;51.478;5.694;2023-03-12T22:06:13;10.30;99.90
46676;DHT22;32412;51.478;5.694;2023-03-12T22:08:40;10.30;99.90
46676;DHT22;32412;51.478;5.694;2023-03-12T22:11:07;10.30;99.90
46676;DHT22;32412;51.478;5.694;2023-03-12T22:13:33;10.40;99.90
46676;DHT22;32412;51.478;5.694;2023-03-12T22:16:04;10.40;99.90
46676;DHT22;32412;51.478;5.694;2023-03-12T22:18:31;10.40;99.90
46676;DHT22;32412;51.478;5.694;2023-03-12T22:20:59;10.40;99.90
46676;DHT22;32412;51.478;5.694;2023-03-12T22:23:26;10.40;99.90
46676;DHT22;32412;51.478;5.694;2023-03-12T22:25:59;10.50;99.90
46676;DHT22;32412;51.478;5.694;2023-03-12T22:28:25;10.50;99.90
46676;DHT22;32412;51.478;5.694;2023-03-12T22:30:56;10.50;99.90
46676;DHT22;32412;51.478;5.694;2023-03-12T22:33:22;10.50;99.90
46676;DHT22;32412;51.478;5.694;2023-03-12T22:35:48;10.50;99.90
46676;DHT22;32412;51.478;5.694;2023-03-12T22:38:16;10.60;99.90
46676;DHT22;32412;51.478;5.694;2023-03-12T22:40:42;10.60;99.90
46676;DHT22;32412;51.478;5.694;2023-03-12T22:43:08;10.60;99.90
46676;DHT22;32412;51.478;5.694;2023-03-12T22:45:34;10.60;99.90
46676;DHT22;32412;51.478;5.694;2023-03-12T22:48:00;10.60;99.90
46676;DHT22;32412;51.478;5.694;2023-03-12T22:50:26;10.70;99.90
46676;DHT22;32412;51.478;5.694;2023-03-12T22:52:51;10.70;99.90
46676;DHT22;32412;51.478;5.694;2023-03-12T22:55:17;10.70;99.90
46676;DHT22;32412;51.478;5.694;2023-03-12T22:57:43;10.60;99.90
46676;DHT22;32412;51.478;5.694;2023-03-12T23:00:11;10.60;99.90
46676;DHT22;32412;51.478;5.694;2023-03-12T23:02:37;10.50;99.90
46676;DHT22;32412;51.478;5.694;2023-03-12T23:05:07;10.60;99.90
46676;DHT22;32412;51.478;5.694;2023-03-12T23:07:33;10.60;99.90
46676;DHT22;32412;51.478;5.694;2023-03-12T23:09:59;10.70;99.90
46676;DHT22;32412;51.478;5.694;2023-03-12T23:12:25;10.70;99.90
46676;DHT22;32412;51.478;5.694;2023-03-12T23:14:51;10.70;99.90
46676;DHT22;32412;51.478;5.694;2023-03-12T23:17:17;10.50;99.90
46676;DHT22;32412;51.478;5.694;2023-03-12T23:19:43;10.40;99.90
46676;DHT22;32412;51.478;5.694;2023-03-12T23:22:09;10.30;99.90
46676;DHT22;32412;51.478;5.694;2023-03-12T23:24:35;10.20;99.90
46676;DHT22;32412;51.478;5.694;2023-03-12T23:27:01;10.10;99.90
46676;DHT22;32412;51.478;5.694;2023-03-12T23:29:29;10.20;99.90
46676;DHT22;32412;51.478;5.694;2023-03-12T23:31:54;10.20;99.90
46676;DHT22;32412;51.478;5.694;2023-03-12T23:34:20;10.20;99.90
46676;DHT22;32412;51.478;5.694;2023-03-12T23:36:46;10.10;99.90
46676;DHT22;32412;51.478;5.694;2023-03-12T23:39:13;10.10;99.90
46676;DHT22;32412;51.478;5.694;2023-03-12T23:41:39;10.20;99.90
46676;DHT22;32412;51.478;5.694;2023-03-12T23:44:05;10.10;99.90
46676;DHT22;32412;51.478;5.694;2023-03-12T23:46:30;10.10;99.90
46676;DHT22;32412;51.478;5.694;2023-03-12T23:48:56;10.10;99.90
46676;DHT22;32412;51.478;5.694;2023-03-12T23:51:24;10.00;99.90
46676;DHT22;32412;51.478;5.694;2023-03-12T23:53:55;10.00;99.90
46676;DHT22;32412;51.478;5.694;2023-03-12T23:56:22;10.00;99.90
46676;DHT22;32412;51.478;5.694;2023-03-12T23:58:49;10.00;99.90
